Time;durP1;ratioP1;P1;durP2;ratioP2;P2;SDS_P1;SDS_P2;PMS_P1;PMS_P2;Temp;Humidity;BMP_temperature;BMP_pressure;BME280_temperature;BME280_humidity;BME280_pressure;Samples;Min_cycle;Max_cycle;Signal;HPM_P1;HPM_P2
2022/02/16 00:02:05;;;;;;;0.50;0.50;;;;;;;;;;4994432;28;20442;-59
2022/02/16 00:04:31;;;;;;;0.50;0.50;;;;;;;;;;4994752;28;20209;-59
2022/02/16 00:06:57;;;;;;;0.50;0.50;;;;;;;;;;4994604;28;20272;-59
2022/02/16 00:09:23;;;;;;;0.50;0.50;;;;;;;;;;4994623;28;20995;-59
2022/02/16 00:11:49;;;;;;;0.50;0.50;;;;;;;;;;4994302;28;20308;-58
2022/02/16 00:14:15;;;;;;;0.60;0.60;;;;;;;;;;4994363;28;20411;-59
2022/02/16 00:16:41;;;;;;;0.50;0.50;;;;;;;;;;4994351;28;20941;-56
2022/02/16 00:19:07;;;;;;;0.50;0.50;;;;;;;;;;5004405;28;20430;-59
2022/02/16 00:21:32;;;;;;;0.50;0.50;;;;;;;;;;4995836;28;20782;-59
2022/02/16 00:23:58;;;;;;;0.50;0.50;;;;;;;;;;4994121;28;20419;-58
2022/02/16 00:26:25;;;;;;;0.50;0.50;;;;;;;;;;4994192;28;20431;-59
2022/02/16 00:28:51;;;;;;;0.40;0.40;;;;;;;;;;4994209;28;20650;-57
2022/02/16 00:31:17;;;;;;;0.50;0.50;;;;;;;;;;4993831;28;20203;-59
2022/02/16 00:33:43;;;;;;;0.40;0.40;;;;;;;;;;4994954;28;20499;-54
2022/02/16 00:36:09;;;;;;;0.50;0.50;;;;;;;;;;5004888;28;20687;-59
2022/02/16 00:38:35;;;;;;;0.50;0.50;;;;;;;;;;4994015;28;20415;-58
2022/02/16 00:41:01;;;;;;;0.50;0.50;;;;;;;;;;4993738;28;20469;-58
2022/02/16 00:43:27;;;;;;;0.40;0.40;;;;;;;;;;4993915;28;20835;-59
2022/02/16 00:45:53;;;;;;;0.50;0.50;;;;;;;;;;4993777;28;20287;-59
2022/02/16 00:48:19;;;;;;;0.60;0.60;;;;;;;;;;4993725;28;20227;-59
2022/02/16 00:50:45;;;;;;;0.47;0.47;;;;;;;;;;5000093;28;20985;-57
2022/02/16 00:53:11;;;;;;;0.50;0.50;;;;;;;;;;5013072;28;21101;-59
2022/02/16 00:55:36;;;;;;;0.50;0.50;;;;;;;;;;4996363;28;20937;-59
2022/02/16 00:58:05;;;;;;;0.50;0.50;;;;;;;;;;4998761;28;20197;-58
2022/02/16 01:00:31;;;;;;;0.50;0.50;;;;;;;;;;4994424;28;20443;-59
2022/02/16 01:02:57;;;;;;;0.50;0.50;;;;;;;;;;5001126;28;20260;-59
2022/02/16 01:05:23;;;;;;;0.50;0.50;;;;;;;;;;5001826;28;20278;-59
2022/02/16 01:07:49;;;;;;;0.50;0.50;;;;;;;;;;5004214;28;20467;-59
2022/02/16 01:10:15;;;;;;;0.50;0.50;;;;;;;;;;4993281;28;20947;-57
2022/02/16 01:12:41;;;;;;;0.60;0.60;;;;;;;;;;4994742;28;20923;-59
2022/02/16 01:15:07;;;;;;;0.50;0.50;;;;;;;;;;5004269;28;20489;-60
2022/02/16 01:17:33;;;;;;;0.50;0.50;;;;;;;;;;4999952;28;20427;-60
2022/02/16 01:19:59;;;;;;;0.50;0.50;;;;;;;;;;4994349;28;20203;-60
2022/02/16 01:22:25;;;;;;;0.50;0.50;;;;;;;;;;4999078;28;20423;-60
2022/02/16 01:24:51;;;;;;;0.60;0.60;;;;;;;;;;4995549;28;20207;-58
2022/02/16 01:27:17;;;;;;;0.50;0.50;;;;;;;;;;5012684;28;20214;-60
2022/02/16 01:29:43;;;;;;;0.50;0.50;;;;;;;;;;4999343;28;20213;-61
2022/02/16 01:32:09;;;;;;;0.50;0.50;;;;;;;;;;4998483;28;20254;-60
2022/02/16 01:34:35;;;;;;;0.50;0.50;;;;;;;;;;5002003;28;20450;-59
2022/02/16 01:37:01;;;;;;;0.50;0.50;;;;;;;;;;5003789;28;20181;-59
2022/02/16 01:39:27;;;;;;;0.50;0.50;;;;;;;;;;4993532;28;20571;-59
2022/02/16 01:41:55;;;;;;;0.50;0.50;;;;;;;;;;5002194;28;20525;-61
2022/02/16 01:44:21;;;;;;;0.50;0.50;;;;;;;;;;5008360;28;20472;-60
2022/02/16 01:46:54;;;;;;;0.50;0.50;;;;;;;;;;4992683;28;20184;-60
2022/02/16 01:49:21;;;;;;;0.50;0.50;;;;;;;;;;5004788;28;20212;-60
2022/02/16 01:51:48;;;;;;;0.50;0.50;;;;;;;;;;4998132;28;20204;-59
2022/02/16 01:54:14;;;;;;;0.50;0.50;;;;;;;;;;5002705;28;20178;-58
2022/02/16 01:56:43;;;;;;;0.50;0.50;;;;;;;;;;5004697;28;20190;-60
2022/02/16 01:59:09;;;;;;;0.50;0.50;;;;;;;;;;5009590;28;20187;-59
2022/02/16 02:01:35;;;;;;;0.50;0.50;;;;;;;;;;5008506;28;20211;-60
2022/02/16 02:04:01;;;;;;;0.50;0.50;;;;;;;;;;5011429;28;20221;-53
2022/02/16 02:06:27;;;;;;;0.40;0.40;;;;;;;;;;5002601;28;20454;-59
2022/02/16 02:08:53;;;;;;;0.50;0.50;;;;;;;;;;4998009;28;20944;-59
2022/02/16 02:11:19;;;;;;;0.50;0.50;;;;;;;;;;4991999;28;20420;-54
2022/02/16 02:13:55;;;;;;;0.50;0.50;;;;;;;;;;4997189;28;20420;-57
2022/02/16 02:16:21;;;;;;;0.50;0.50;;;;;;;;;;4991765;28;20215;-54
2022/02/16 02:18:47;;;;;;;0.50;0.50;;;;;;;;;;4995214;28;20266;-58
2022/02/16 02:21:13;;;;;;;0.50;0.50;;;;;;;;;;5010022;28;20770;-55
2022/02/16 02:23:39;;;;;;;0.50;0.50;;;;;;;;;;4992268;28;20957;-55
2022/02/16 02:26:05;;;;;;;0.50;0.50;;;;;;;;;;4999091;28;21033;-53
2022/02/16 02:28:31;;;;;;;0.50;0.50;;;;;;;;;;5011671;28;20458;-58
2022/02/16 02:30:57;;;;;;;0.50;0.50;;;;;;;;;;5004963;28;20917;-58
2022/02/16 02:33:23;;;;;;;0.40;0.40;;;;;;;;;;4994721;28;20862;-58
2022/02/16 02:35:49;;;;;;;0.50;0.50;;;;;;;;;;5011387;28;20330;-58
2022/02/16 02:38:15;;;;;;;0.50;0.50;;;;;;;;;;5010079;28;20449;-59
2022/02/16 02:40:41;;;;;;;0.50;0.50;;;;;;;;;;4992189;28;20298;-59
2022/02/16 02:43:07;;;;;;;0.50;0.50;;;;;;;;;;4999509;28;20534;-60
2022/02/16 02:45:33;;;;;;;0.50;0.50;;;;;;;;;;5001337;28;20291;-60
2022/02/16 02:47:59;;;;;;;0.50;0.50;;;;;;;;;;5001327;28;20211;-60
2022/02/16 02:50:25;;;;;;;0.50;0.50;;;;;;;;;;4991836;28;20224;-60
2022/02/16 02:52:51;;;;;;;0.50;0.50;;;;;;;;;;5002565;28;20417;-60
2022/02/16 02:55:19;;;;;;;0.52;0.52;;;;;;;;;;5011067;28;20444;-58
2022/02/16 02:57:45;;;;;;;0.50;0.50;;;;;;;;;;5001289;28;20207;-59
2022/02/16 03:00:12;;;;;;;0.50;0.50;;;;;;;;;;4993002;28;20670;-60
2022/02/16 03:02:38;;;;;;;0.50;0.50;;;;;;;;;;4996637;28;20410;-60
2022/02/16 03:05:04;;;;;;;0.60;0.60;;;;;;;;;;5005974;28;20193;-57
2022/02/16 03:07:30;;;;;;;0.40;0.40;;;;;;;;;;4994826;28;20180;-60
2022/02/16 03:09:56;;;;;;;0.50;0.50;;;;;;;;;;5004525;28;20637;-60
2022/02/16 03:12:22;;;;;;;0.50;0.50;;;;;;;;;;5003058;28;20966;-60
2022/02/16 03:14:48;;;;;;;0.50;0.50;;;;;;;;;;5004985;28;20455;-60
2022/02/16 03:17:14;;;;;;;0.43;0.43;;;;;;;;;;4992835;28;20448;-60
2022/02/16 03:19:40;;;;;;;0.50;0.50;;;;;;;;;;5003792;28;22135;-60
2022/02/16 03:22:06;;;;;;;0.50;0.50;;;;;;;;;;4995495;28;21017;-60
2022/02/16 03:24:34;;;;;;;0.60;0.60;;;;;;;;;;4997828;28;20211;-60
2022/02/16 03:27:00;;;;;;;0.50;0.50;;;;;;;;;;4999124;28;20432;-60
2022/02/16 03:29:26;;;;;;;0.50;0.50;;;;;;;;;;4996647;28;20215;-60
2022/02/16 03:31:52;;;;;;;0.50;0.50;;;;;;;;;;5008713;28;20423;-60
2022/02/16 03:34:18;;;;;;;0.50;0.50;;;;;;;;;;5011137;28;20518;-60
2022/02/16 03:36:44;;;;;;;0.50;0.50;;;;;;;;;;4996840;28;20750;-60
2022/02/16 03:39:10;;;;;;;0.50;0.50;;;;;;;;;;5014773;28;20589;-60
2022/02/16 03:41:36;;;;;;;0.50;0.50;;;;;;;;;;5014038;28;20177;-60
2022/02/16 03:44:02;;;;;;;0.50;0.50;;;;;;;;;;5008072;28;20178;-59
2022/02/16 03:46:28;;;;;;;0.55;0.55;;;;;;;;;;5006946;28;20220;-59
2022/02/16 03:48:54;;;;;;;0.50;0.50;;;;;;;;;;4999053;28;20208;-60
2022/02/16 03:51:20;;;;;;;0.50;0.50;;;;;;;;;;4996260;28;20420;-60
2022/02/16 03:53:46;;;;;;;0.50;0.50;;;;;;;;;;4995956;28;20445;-59
2022/02/16 03:56:12;;;;;;;0.50;0.50;;;;;;;;;;5005630;28;20498;-60
2022/02/16 03:58:38;;;;;;;0.50;0.50;;;;;;;;;;4994747;28;20518;-60
2022/02/16 04:01:04;;;;;;;0.50;0.50;;;;;;;;;;4999457;28;20359;-60
2022/02/16 04:03:30;;;;;;;0.52;0.52;;;;;;;;;;4999105;28;20417;-60
2022/02/16 04:05:56;;;;;;;0.50;0.50;;;;;;;;;;4997783;28;20196;-60
2022/02/16 04:08:22;;;;;;;0.50;0.50;;;;;;;;;;5009942;28;20468;-60
2022/02/16 04:10:48;;;;;;;0.43;0.43;;;;;;;;;;4995602;28;20427;-60
2022/02/16 04:13:14;;;;;;;0.50;0.50;;;;;;;;;;5014166;28;20502;-60
2022/02/16 04:15:40;;;;;;;0.50;0.50;;;;;;;;;;5000596;28;20459;-60
2022/02/16 04:18:06;;;;;;;0.50;0.50;;;;;;;;;;4994397;28;20503;-60
2022/02/16 04:20:31;;;;;;;0.50;0.50;;;;;;;;;;5002545;28;20273;-60
2022/02/16 04:22:57;;;;;;;0.50;0.50;;;;;;;;;;5003751;28;20174;-59
2022/02/16 04:25:23;;;;;;;0.50;0.50;;;;;;;;;;5012123;28;20457;-60
2022/02/16 04:27:49;;;;;;;0.50;0.50;;;;;;;;;;5005812;28;20516;-60
2022/02/16 04:30:17;;;;;;;0.50;0.50;;;;;;;;;;5013575;28;20935;-60
2022/02/16 04:32:43;;;;;;;0.47;0.47;;;;;;;;;;4995494;28;20229;-60
2022/02/16 04:35:09;;;;;;;0.50;0.50;;;;;;;;;;4994453;28;20196;-57
2022/02/16 04:37:35;;;;;;;0.50;0.50;;;;;;;;;;4999853;28;20423;-60
2022/02/16 04:40:02;;;;;;;0.47;0.47;;;;;;;;;;5001397;28;20192;-60
2022/02/16 04:42:28;;;;;;;0.50;0.50;;;;;;;;;;4994858;28;20674;-60
2022/02/16 04:44:54;;;;;;;0.50;0.50;;;;;;;;;;4995830;28;20274;-60
2022/02/16 04:47:20;;;;;;;0.50;0.50;;;;;;;;;;5011997;28;20837;-60
2022/02/16 04:49:46;;;;;;;0.50;0.50;;;;;;;;;;5004231;28;20286;-58
2022/02/16 04:52:12;;;;;;;0.50;0.50;;;;;;;;;;5002341;28;20519;-59
2022/02/16 04:54:40;;;;;;;0.60;0.60;;;;;;;;;;5013284;28;20667;-60
2022/02/16 04:57:06;;;;;;;0.50;0.50;;;;;;;;;;5009877;28;20426;-60
2022/02/16 04:59:32;;;;;;;0.50;0.50;;;;;;;;;;5010435;28;20199;-59
2022/02/16 05:01:58;;;;;;;0.40;0.40;;;;;;;;;;5012875;28;20184;-58
2022/02/16 05:04:24;;;;;;;0.50;0.50;;;;;;;;;;5011107;28;20456;-60
2022/02/16 05:06:50;;;;;;;0.50;0.50;;;;;;;;;;5007305;28;20432;-60
2022/02/16 05:09:15;;;;;;;0.50;0.50;;;;;;;;;;4999090;28;20512;-61
2022/02/16 05:11:41;;;;;;;0.50;0.50;;;;;;;;;;5008797;28;20458;-59
2022/02/16 05:14:07;;;;;;;0.47;0.47;;;;;;;;;;4992807;28;20428;-56
2022/02/16 05:16:33;;;;;;;0.50;0.50;;;;;;;;;;5010225;28;20446;-58
2022/02/16 05:18:59;;;;;;;0.50;0.50;;;;;;;;;;5000935;28;20436;-60
2022/02/16 05:21:25;;;;;;;0.50;0.50;;;;;;;;;;5001860;28;20438;-59
2022/02/16 05:23:53;;;;;;;0.60;0.60;;;;;;;;;;5013623;28;20452;-54
2022/02/16 05:26:19;;;;;;;0.50;0.50;;;;;;;;;;5000913;28;20213;-60
2022/02/16 05:28:45;;;;;;;0.50;0.50;;;;;;;;;;4993154;28;20557;-54
2022/02/16 05:31:11;;;;;;;0.50;0.50;;;;;;;;;;4992299;28;20503;-55
2022/02/16 05:33:37;;;;;;;0.50;0.50;;;;;;;;;;5024501;28;20475;-58
2022/02/16 05:36:04;;;;;;;0.40;0.40;;;;;;;;;;4992651;28;20441;-59
2022/02/16 05:38:30;;;;;;;0.50;0.50;;;;;;;;;;4992997;28;20949;-58
2022/02/16 05:40:56;;;;;;;0.50;0.50;;;;;;;;;;4992577;28;20231;-59
2022/02/16 05:43:22;;;;;;;0.50;0.50;;;;;;;;;;4992901;28;20563;-59
2022/02/16 05:45:48;;;;;;;0.40;0.40;;;;;;;;;;5004154;28;20456;-60
2022/02/16 05:48:20;;;;;;;0.50;0.50;;;;;;;;;;4992284;28;20460;-59
2022/02/16 05:50:47;;;;;;;0.52;0.52;;;;;;;;;;4992498;28;20168;-59
2022/02/16 05:53:13;;;;;;;0.55;0.55;;;;;;;;;;4992722;28;20169;-58
2022/02/16 05:55:39;;;;;;;0.50;0.50;;;;;;;;;;4992588;28;20264;-59
2022/02/16 05:58:05;;;;;;;0.45;0.45;;;;;;;;;;4992727;28;20656;-60
2022/02/16 06:00:31;;;;;;;0.50;0.50;;;;;;;;;;4992018;28;20182;-59
2022/02/16 06:02:57;;;;;;;0.50;0.50;;;;;;;;;;4992474;28;20428;-59
2022/02/16 06:05:24;;;;;;;0.40;0.40;;;;;;;;;;4992438;28;20440;-59
2022/02/16 06:07:49;;;;;;;0.50;0.50;;;;;;;;;;4992300;28;20419;-60
2022/02/16 06:10:16;;;;;;;0.50;0.50;;;;;;;;;;4992218;28;20174;-59
2022/02/16 06:12:42;;;;;;;0.50;0.50;;;;;;;;;;4992451;28;20408;-59
2022/02/16 06:15:08;;;;;;;0.50;0.50;;;;;;;;;;4992112;28;20640;-60
2022/02/16 06:17:34;;;;;;;0.40;0.40;;;;;;;;;;4992674;28;20544;-59
2022/02/16 06:20:00;;;;;;;0.40;0.40;;;;;;;;;;5000398;28;20187;-60
2022/02/16 06:22:26;;;;;;;0.50;0.50;;;;;;;;;;5011743;28;20775;-60
2022/02/16 06:24:52;;;;;;;0.50;0.50;;;;;;;;;;5011811;28;20192;-60
2022/02/16 06:27:18;;;;;;;0.47;0.47;;;;;;;;;;5011932;28;20584;-60
2022/02/16 06:29:44;;;;;;;0.50;0.50;;;;;;;;;;5011758;28;20339;-58
2022/02/16 06:32:10;;;;;;;0.50;0.50;;;;;;;;;;5011656;28;20399;-59
2022/02/16 06:34:36;;;;;;;0.50;0.50;;;;;;;;;;5011716;28;21008;-60
2022/02/16 06:37:02;;;;;;;0.50;0.50;;;;;;;;;;5011906;28;20173;-60
2022/02/16 06:39:28;;;;;;;0.40;0.40;;;;;;;;;;5011742;28;20415;-60
2022/02/16 06:41:54;;;;;;;0.50;0.50;;;;;;;;;;5011409;28;20180;-60
2022/02/16 06:44:20;;;;;;;0.50;0.50;;;;;;;;;;5011595;28;20869;-60
2022/02/16 06:46:47;;;;;;;0.40;0.40;;;;;;;;;;5011605;28;20498;-60
2022/02/16 06:49:13;;;;;;;0.40;0.40;;;;;;;;;;5011497;28;20562;-60
2022/02/16 06:51:39;;;;;;;0.50;0.50;;;;;;;;;;5011218;28;20205;-60
2022/02/16 06:54:05;;;;;;;0.40;0.40;;;;;;;;;;5011557;28;20255;-58
2022/02/16 06:56:31;;;;;;;0.50;0.50;;;;;;;;;;5011433;28;20267;-60
2022/02/16 06:58:57;;;;;;;0.50;0.50;;;;;;;;;;5001548;28;20429;-60
2022/02/16 07:01:23;;;;;;;0.50;0.50;;;;;;;;;;5003164;28;20185;-57
2022/02/16 07:03:49;;;;;;;0.40;0.40;;;;;;;;;;4999381;28;20503;-60
2022/02/16 07:06:15;;;;;;;0.50;0.50;;;;;;;;;;4995360;28;20447;-60
2022/02/16 07:08:41;;;;;;;0.40;0.40;;;;;;;;;;4995667;28;20663;-60
2022/02/16 07:11:07;;;;;;;0.50;0.50;;;;;;;;;;4991795;28;21418;-61
2022/02/16 07:13:33;;;;;;;0.50;0.50;;;;;;;;;;4998799;28;20934;-60
2022/02/16 07:15:58;;;;;;;0.40;0.40;;;;;;;;;;4996483;28;20866;-60
2022/02/16 07:18:28;;;;;;;0.50;0.50;;;;;;;;;;4994946;28;20260;-60
2022/02/16 07:20:54;;;;;;;0.50;0.50;;;;;;;;;;4995040;28;20424;-60
2022/02/16 07:23:19;;;;;;;0.50;0.50;;;;;;;;;;4995456;28;20186;-61
2022/02/16 07:25:45;;;;;;;0.50;0.50;;;;;;;;;;4995293;28;20672;-60
2022/02/16 07:28:11;;;;;;;0.50;0.50;;;;;;;;;;4998274;28;20474;-59
2022/02/16 07:30:37;;;;;;;0.47;0.47;;;;;;;;;;5005668;28;20430;-59
2022/02/16 07:33:03;;;;;;;0.50;0.50;;;;;;;;;;4995172;28;20409;-60
2022/02/16 07:35:29;;;;;;;0.50;0.50;;;;;;;;;;4995047;28;20198;-58
2022/02/16 07:37:57;;;;;;;0.50;0.50;;;;;;;;;;4995880;28;20527;-60
2022/02/16 07:40:23;;;;;;;0.50;0.50;;;;;;;;;;5013987;28;20459;-60
2022/02/16 07:42:50;;;;;;;0.50;0.50;;;;;;;;;;5011567;28;20238;-57
2022/02/16 07:45:16;;;;;;;0.50;0.50;;;;;;;;;;5014796;28;20679;-60
2022/02/16 07:47:42;;;;;;;0.50;0.50;;;;;;;;;;5000981;28;20722;-60
2022/02/16 07:50:08;;;;;;;0.50;0.50;;;;;;;;;;4994566;28;20179;-59
2022/02/16 07:52:38;;;;;;;0.50;0.50;;;;;;;;;;5006047;28;20427;-60
2022/02/16 07:55:04;;;;;;;0.50;0.50;;;;;;;;;;5014428;28;20231;-61
2022/02/16 07:57:30;;;;;;;0.60;0.60;;;;;;;;;;5003831;28;20246;-60
2022/02/16 07:59:56;;;;;;;0.50;0.50;;;;;;;;;;4996508;28;20195;-59
2022/02/16 08:02:22;;;;;;;0.50;0.50;;;;;;;;;;4994076;28;20221;-59
2022/02/16 08:04:49;;;;;;;0.50;0.50;;;;;;;;;;4994582;28;20251;-57
2022/02/16 08:07:15;;;;;;;0.50;0.50;;;;;;;;;;4992847;28;20280;-59
2022/02/16 08:09:41;;;;;;;0.50;0.50;;;;;;;;;;4993977;28;20205;-61
2022/02/16 08:12:07;;;;;;;0.50;0.50;;;;;;;;;;4993755;28;20177;-60
2022/02/16 08:14:33;;;;;;;0.50;0.50;;;;;;;;;;4993681;28;20262;-59
2022/02/16 08:17:03;;;;;;;0.50;0.50;;;;;;;;;;4994220;28;20176;-59
2022/02/16 08:19:29;;;;;;;0.40;0.40;;;;;;;;;;4994260;28;20184;-60
2022/02/16 08:21:56;;;;;;;0.50;0.50;;;;;;;;;;4993618;28;20183;-59
2022/02/16 08:24:23;;;;;;;0.60;0.60;;;;;;;;;;4993495;28;20172;-59
2022/02/16 08:26:49;;;;;;;0.50;0.50;;;;;;;;;;4993995;28;20172;-59
2022/02/16 08:29:15;;;;;;;0.50;0.50;;;;;;;;;;4993981;28;20286;-60
2022/02/16 08:31:41;;;;;;;0.50;0.50;;;;;;;;;;4993862;28;20409;-59
2022/02/16 08:34:08;;;;;;;0.50;0.50;;;;;;;;;;4994190;28;20171;-60
2022/02/16 08:36:34;;;;;;;0.50;0.50;;;;;;;;;;4995077;28;20177;-56
2022/02/16 08:39:00;;;;;;;0.50;0.50;;;;;;;;;;4993786;28;20175;-56
2022/02/16 08:41:26;;;;;;;0.50;0.50;;;;;;;;;;4993471;28;20444;-57
2022/02/16 08:43:53;;;;;;;0.50;0.50;;;;;;;;;;4993596;28;20415;-57
2022/02/16 08:46:19;;;;;;;0.45;0.45;;;;;;;;;;4993530;28;20789;-59
2022/02/16 08:48:45;;;;;;;0.40;0.40;;;;;;;;;;4993522;28;20288;-59
2022/02/16 08:51:11;;;;;;;0.47;0.47;;;;;;;;;;4993290;28;20409;-57
2022/02/16 08:53:37;;;;;;;0.50;0.50;;;;;;;;;;4993391;28;20912;-60
2022/02/16 08:56:04;;;;;;;0.50;0.50;;;;;;;;;;4993743;28;20275;-60
2022/02/16 08:58:30;;;;;;;0.50;0.50;;;;;;;;;;4993711;28;20191;-60
2022/02/16 09:00:56;;;;;;;0.40;0.40;;;;;;;;;;4993305;28;20185;-60
2022/02/16 09:03:22;;;;;;;0.40;0.40;;;;;;;;;;4993514;28;20626;-60
2022/02/16 09:05:48;;;;;;;0.40;0.40;;;;;;;;;;4993406;28;20220;-59
2022/02/16 09:08:14;;;;;;;0.50;0.50;;;;;;;;;;4993068;28;20456;-60
2022/02/16 09:10:40;;;;;;;0.40;0.40;;;;;;;;;;4993253;28;20177;-60
2022/02/16 09:13:06;;;;;;;0.50;0.50;;;;;;;;;;4993298;28;20842;-60
2022/02/16 09:15:32;;;;;;;0.40;0.40;;;;;;;;;;4992993;28;20221;-59
2022/02/16 09:17:59;;;;;;;0.40;0.40;;;;;;;;;;4992946;28;21165;-60
2022/02/16 09:20:25;;;;;;;0.50;0.50;;;;;;;;;;4992860;28;20196;-60
2022/02/16 09:22:51;;;;;;;0.40;0.40;;;;;;;;;;4992286;28;20593;-60
2022/02/16 09:25:17;;;;;;;0.40;0.40;;;;;;;;;;4993082;28;20247;-61
2022/02/16 09:27:43;;;;;;;0.40;0.40;;;;;;;;;;4992940;28;20180;-60
2022/02/16 09:30:10;;;;;;;0.50;0.50;;;;;;;;;;4992599;28;20733;-60
2022/02/16 09:32:36;;;;;;;0.40;0.40;;;;;;;;;;4992754;28;20413;-60
2022/02/16 09:35:02;;;;;;;0.47;0.47;;;;;;;;;;4992748;28;20225;-60
2022/02/16 09:37:28;;;;;;;0.47;0.47;;;;;;;;;;4992912;28;20522;-60
2022/02/16 09:39:54;;;;;;;0.40;0.40;;;;;;;;;;4992774;28;20178;-60
2022/02/16 09:42:20;;;;;;;0.50;0.50;;;;;;;;;;4992481;28;20413;-61
2022/02/16 09:45:01;;;;;;;0.50;0.50;;;;;;;;;;4992505;28;20201;-61
2022/02/16 09:47:29;;;;;;;0.50;0.50;;;;;;;;;;4992508;28;20411;-60
2022/02/16 09:49:55;;;;;;;0.50;0.50;;;;;;;;;;4992422;28;20249;-60
2022/02/16 09:52:21;;;;;;;0.40;0.40;;;;;;;;;;4992423;28;20173;-60
2022/02/16 09:54:47;;;;;;;0.50;0.50;;;;;;;;;;4992430;28;20801;-59
2022/02/16 09:57:13;;;;;;;0.40;0.40;;;;;;;;;;4991507;28;20712;-59
2022/02/16 09:59:39;;;;;;;0.50;0.50;;;;;;;;;;4992474;28;20177;-60
2022/02/16 10:02:08;;;;;;;0.50;0.50;;;;;;;;;;4992063;28;20185;-58
2022/02/16 10:04:35;;;;;;;0.50;0.50;;;;;;;;;;4992283;28;20197;-60
2022/02/16 10:07:01;;;;;;;0.40;0.40;;;;;;;;;;4992396;28;20189;-60
2022/02/16 10:09:32;;;;;;;0.50;0.50;;;;;;;;;;4992267;28;20204;-59
2022/02/16 10:11:59;;;;;;;0.50;0.50;;;;;;;;;;4992109;28;20180;-59
2022/02/16 10:14:32;;;;;;;0.50;0.50;;;;;;;;;;4991981;28;20203;-60
2022/02/16 10:17:02;;;;;;;0.50;0.50;;;;;;;;;;4991990;28;20204;-60
2022/02/16 10:19:45;;;;;;;0.50;0.50;;;;;;;;;;4991954;28;20673;-60
2022/02/16 10:22:11;;;;;;;0.50;0.50;;;;;;;;;;4991753;28;20185;-60
2022/02/16 10:24:37;;;;;;;0.50;0.50;;;;;;;;;;4991938;28;20831;-60
2022/02/16 10:27:03;;;;;;;0.50;0.50;;;;;;;;;;4991964;28;20979;-60
2022/02/16 10:29:31;;;;;;;0.50;0.50;;;;;;;;;;4991830;28;20464;-60
2022/02/16 10:31:57;;;;;;;0.45;0.45;;;;;;;;;;4990367;28;20217;-60
2022/02/16 10:34:43;;;;;;;0.50;0.50;;;;;;;;;;4991828;28;20186;-57
2022/02/16 10:37:10;;;;;;;0.50;0.50;;;;;;;;;;4991910;28;20224;-60
2022/02/16 10:39:36;;;;;;;0.50;0.50;;;;;;;;;;4991905;28;20185;-60
2022/02/16 10:42:02;;;;;;;0.50;0.50;;;;;;;;;;4991481;28;20186;-59
2022/02/16 10:44:31;;;;;;;0.50;0.50;;;;;;;;;;4991610;28;20546;-61
2022/02/16 10:46:59;;;;;;;0.50;0.50;;;;;;;;;;4991753;28;20175;-59
2022/02/16 10:49:26;;;;;;;0.50;0.50;;;;;;;;;;4991004;28;20216;-60
2022/02/16 10:52:02;;;;;;;0.50;0.50;;;;;;;;;;4991508;28;20178;-59
2022/02/16 10:54:28;;;;;;;0.52;0.52;;;;;;;;;;4991716;28;20286;-61
2022/02/16 10:56:54;;;;;;;0.50;0.50;;;;;;;;;;4991666;28;20182;-60
2022/02/16 10:59:20;;;;;;;0.50;0.50;;;;;;;;;;4991299;28;20406;-60
2022/02/16 11:01:46;;;;;;;0.50;0.50;;;;;;;;;;5000126;28;20749;-60
2022/02/16 11:04:13;;;;;;;0.60;0.60;;;;;;;;;;5011370;28;20557;-60
2022/02/16 11:06:43;;;;;;;0.50;0.50;;;;;;;;;;4997878;28;20269;-60
2022/02/16 11:09:13;;;;;;;0.50;0.50;;;;;;;;;;4991900;28;20202;-60
2022/02/16 11:11:41;;;;;;;0.47;0.47;;;;;;;;;;4991757;28;20175;-60
2022/02/16 11:14:08;;;;;;;0.50;0.50;;;;;;;;;;4991354;28;20171;-60
2022/02/16 11:16:34;;;;;;;0.40;0.40;;;;;;;;;;4991828;28;20197;-60
2022/02/16 11:19:03;;;;;;;0.40;0.40;;;;;;;;;;4991673;28;20178;-60
2022/02/16 11:21:29;;;;;;;0.50;0.50;;;;;;;;;;4991188;28;20253;-61
2022/02/16 11:23:56;;;;;;;0.40;0.40;;;;;;;;;;4991423;28;20265;-61
2022/02/16 11:26:40;;;;;;;0.40;0.40;;;;;;;;;;4991260;28;20448;-61
2022/02/16 11:29:26;;;;;;;0.50;0.50;;;;;;;;;;4991570;28;20227;-60
2022/02/16 11:32:10;;;;;;;0.50;0.50;;;;;;;;;;4980837;28;20225;-60
2022/02/16 11:34:36;;;;;;;0.50;0.50;;;;;;;;;;4991551;28;20615;-60
2022/02/16 11:37:05;;;;;;;0.50;0.50;;;;;;;;;;4991147;28;20205;-61
2022/02/16 11:39:41;;;;;;;0.50;0.50;;;;;;;;;;4991645;28;20428;-60
2022/02/16 11:42:07;;;;;;;0.40;0.40;;;;;;;;;;4991855;28;20182;-59
2022/02/16 11:45:00;;;;;;;0.40;0.40;;;;;;;;;;4991570;28;20206;-58
2022/02/16 11:47:35;;;;;;;0.50;0.50;;;;;;;;;;4993739;28;20217;-60
2022/02/16 11:50:14;;;;;;;0.60;0.60;;;;;;;;;;4994898;28;20577;-60
2022/02/16 11:52:53;;;;;;;0.40;0.40;;;;;;;;;;4994873;28;20209;-59
2022/02/16 11:55:22;;;;;;;0.45;0.45;;;;;;;;;;4994773;28;20225;-60
2022/02/16 11:57:53;;;;;;;0.50;0.50;;;;;;;;;;4994538;28;20182;-61
2022/02/16 12:00:19;;;;;;;0.50;0.50;;;;;;;;;;4994550;28;20179;-60
2022/02/16 12:03:09;;;;;;;0.40;0.40;;;;;;;;;;4994427;28;20515;-60
2022/02/16 12:05:51;;;;;;;0.50;0.50;;;;;;;;;;4994609;28;20456;-60
2022/02/16 12:08:23;;;;;;;0.40;0.40;;;;;;;;;;4994722;28;20220;-61
2022/02/16 12:10:51;;;;;;;0.50;0.50;;;;;;;;;;4994020;28;20633;-60
2022/02/16 12:13:24;;;;;;;0.40;0.40;;;;;;;;;;4994647;28;20174;-61
2022/02/16 12:15:55;;;;;;;0.50;0.50;;;;;;;;;;4994414;28;20214;-59
2022/02/16 12:18:20;;;;;;;0.50;0.50;;;;;;;;;;4993488;28;20546;-60
2022/02/16 12:20:49;;;;;;;0.40;0.40;;;;;;;;;;4993686;28;20185;-60
2022/02/16 12:23:15;;;;;;;0.40;0.40;;;;;;;;;;4994557;28;20405;-60
2022/02/16 12:25:41;;;;;;;0.40;0.40;;;;;;;;;;4994471;28;20257;-60
2022/02/16 12:28:07;;;;;;;0.50;0.50;;;;;;;;;;4994594;28;20247;-61
2022/02/16 12:30:34;;;;;;;0.50;0.50;;;;;;;;;;4994185;28;20409;-60
2022/02/16 12:33:00;;;;;;;0.40;0.40;;;;;;;;;;4994253;28;20521;-61
2022/02/16 12:35:26;;;;;;;0.40;0.40;;;;;;;;;;4994138;28;20209;-61
2022/02/16 12:37:53;;;;;;;0.40;0.40;;;;;;;;;;4994302;28;20174;-61
2022/02/16 12:40:22;;;;;;;0.40;0.40;;;;;;;;;;4994173;28;20394;-60
2022/02/16 12:42:49;;;;;;;0.50;0.50;;;;;;;;;;4993696;28;20174;-59
2022/02/16 12:45:24;;;;;;;0.40;0.40;;;;;;;;;;4994202;28;20236;-60
2022/02/16 12:47:58;;;;;;;0.40;0.40;;;;;;;;;;4993905;28;20253;-61
2022/02/16 12:50:24;;;;;;;0.50;0.50;;;;;;;;;;4993661;28;20181;-61
2022/02/16 12:52:50;;;;;;;0.50;0.50;;;;;;;;;;4993821;28;20178;-60
2022/02/16 12:55:15;;;;;;;0.50;0.50;;;;;;;;;;4994040;28;20421;-62
2022/02/16 12:57:43;;;;;;;0.40;0.40;;;;;;;;;;4992774;28;20410;-60
2022/02/16 13:03:00;;;;;;;0.50;0.50;;;;;;;;;;4993960;28;20752;-61
2022/02/16 13:05:34;;;;;;;0.40;0.40;;;;;;;;;;4993455;28;20211;-60
2022/02/16 13:08:00;;;;;;;0.50;0.50;;;;;;;;;;4993571;28;20177;-61
2022/02/16 13:10:28;;;;;;;0.50;0.50;;;;;;;;;;4993524;28;20182;-59
2022/02/16 13:12:54;;;;;;;0.50;0.50;;;;;;;;;;4993623;28;20182;-60
2022/02/16 13:17:58;;;;;;;0.50;0.50;;;;;;;;;;5029929;28;20546;-60
2022/02/16 13:20:32;;;;;;;0.50;0.50;;;;;;;;;;5032609;28;20542;-61
2022/02/16 13:23:17;;;;;;;0.50;0.50;;;;;;;;;;5032827;28;20177;-59
2022/02/16 13:25:45;;;;;;;0.50;0.50;;;;;;;;;;5032443;28;20290;-58
2022/02/16 13:28:16;;;;;;;0.40;0.40;;;;;;;;;;5032515;28;20196;-61
2022/02/16 13:30:43;;;;;;;0.47;0.47;;;;;;;;;;5032591;28;20267;-60
2022/02/16 13:33:14;;;;;;;0.40;0.40;;;;;;;;;;5032491;28;20267;-61
2022/02/16 13:35:42;;;;;;;0.50;0.50;;;;;;;;;;5032367;28;20201;-61
2022/02/16 13:38:09;;;;;;;0.50;0.50;;;;;;;;;;5032813;28;20184;-60
2022/02/16 13:40:45;;;;;;;0.40;0.40;;;;;;;;;;5032179;28;20165;-60
2022/02/16 13:43:11;;;;;;;0.40;0.40;;;;;;;;;;5032640;28;20176;-60
2022/02/16 13:45:37;;;;;;;0.40;0.40;;;;;;;;;;5031973;28;20672;-61
2022/02/16 13:48:06;;;;;;;0.40;0.40;;;;;;;;;;5032238;28;20978;-61
2022/02/16 13:50:34;;;;;;;0.40;0.40;;;;;;;;;;5031945;28;20542;-59
2022/02/16 13:53:01;;;;;;;0.40;0.40;;;;;;;;;;5032102;28;20610;-60
2022/02/16 13:55:28;;;;;;;0.50;0.50;;;;;;;;;;5032084;28;20215;-61
2022/02/16 13:58:06;;;;;;;0.40;0.40;;;;;;;;;;5032402;28;20179;-60
2022/02/16 14:00:32;;;;;;;0.50;0.50;;;;;;;;;;5032050;28;20169;-61
2022/02/16 14:03:04;;;;;;;0.50;0.50;;;;;;;;;;5031939;28;20173;-61
2022/02/16 14:05:30;;;;;;;0.50;0.50;;;;;;;;;;5031811;28;20223;-61
2022/02/16 14:07:57;;;;;;;0.40;0.40;;;;;;;;;;5031833;28;20173;-61
2022/02/16 14:10:23;;;;;;;0.40;0.40;;;;;;;;;;5031412;28;20207;-61
2022/02/16 14:12:49;;;;;;;0.47;0.47;;;;;;;;;;5031981;28;20595;-61
2022/02/16 14:15:16;;;;;;;0.40;0.40;;;;;;;;;;5031683;28;20218;-61
2022/02/16 14:17:42;;;;;;;0.50;0.50;;;;;;;;;;5032271;28;20184;-61
2022/02/16 14:20:09;;;;;;;0.40;0.40;;;;;;;;;;5032714;28;20188;-60
2022/02/16 14:22:35;;;;;;;0.40;0.40;;;;;;;;;;5032300;28;20239;-59
2022/02/16 14:25:01;;;;;;;0.50;0.50;;;;;;;;;;5032035;28;20172;-60
2022/02/16 14:27:27;;;;;;;0.40;0.40;;;;;;;;;;5031791;28;20179;-60
2022/02/16 14:29:53;;;;;;;0.50;0.50;;;;;;;;;;5031478;28;20205;-61
2022/02/16 14:32:19;;;;;;;0.50;0.50;;;;;;;;;;5031362;28;20184;-61
2022/02/16 14:34:45;;;;;;;0.40;0.40;;;;;;;;;;5031514;28;20412;-61
2022/02/16 14:37:12;;;;;;;0.40;0.40;;;;;;;;;;5031516;28;20223;-61
2022/02/16 14:39:39;;;;;;;0.40;0.40;;;;;;;;;;5031536;28;20428;-60
2022/02/16 14:42:05;;;;;;;0.50;0.50;;;;;;;;;;5031179;28;20173;-61
2022/02/16 14:44:31;;;;;;;0.50;0.50;;;;;;;;;;5031467;28;20176;-60
2022/02/16 14:46:57;;;;;;;0.40;0.40;;;;;;;;;;5031485;28;20431;-60
2022/02/16 14:49:24;;;;;;;0.40;0.40;;;;;;;;;;5036367;28;20238;-59